Time;durP1;ratioP1;P1;durP2;ratioP2;P2;SDS_P1;SDS_P2;PMS_P1;PMS_P2;Temp;Humidity;BMP_temperature;BMP_pressure;BME280_temperature;BME280_humidity;BME280_pressure;Samples;Min_cycle;Max_cycle;Signal;HPM_P1;HPM_P2
2023/06/16 03:49:40;;;;;;;7.80;4.85;;;15.70;98.80;;;;;;6225615;22;20225;-64
2023/06/16 03:52:06;;;;;;;7.18;4.40;;;15.70;99.00;;;;;;6240319;22;20106;-64
2023/06/16 03:57:08;;;;;;;9.48;5.25;;;15.90;99.50;;;;;;6252960;23;20032;-66
2023/06/16 03:59:33;;;;;;;9.20;4.85;;;16.00;99.30;;;;;;6250256;23;20062;-65
2023/06/16 04:02:06;;;;;;;7.60;5.20;;;16.00;99.60;;;;;;6252024;23;20020;-65
2023/06/16 04:04:32;;;;;;;7.38;4.90;;;16.10;99.80;;;;;;6223914;23;20020;-66
2023/06/16 04:07:01;;;;;;;7.03;5.53;;;16.20;99.40;;;;;;6223484;23;20030;-67
2023/06/16 04:09:27;;;;;;;9.50;5.55;;;16.20;99.80;;;;;;6222027;23;20056;-65
2023/06/16 04:11:53;;;;;;;9.77;5.15;;;16.40;99.90;;;;;;6224775;23;20072;-66
2023/06/16 04:14:19;;;;;;;7.72;5.70;;;16.40;99.90;;;;;;6222052;23;20890;-67
2023/06/16 04:16:45;;;;;;;6.97;5.45;;;16.30;99.90;;;;;;6197589;23;20073;-67
2023/06/16 04:19:11;;;;;;;7.55;5.47;;;16.40;99.90;;;;;;6195740;23;20035;-65
2023/06/16 04:21:37;;;;;;;9.65;5.60;;;16.40;99.90;;;;;;6224196;23;20020;-66
2023/06/16 04:24:04;;;;;;;9.65;5.63;;;16.50;99.90;;;;;;6223907;23;20071;-66
2023/06/16 04:26:32;;;;;;;10.02;6.22;;;16.60;99.90;;;;;;6222631;23;20031;-67
2023/06/16 04:29:03;;;;;;;9.88;5.63;;;16.60;99.90;;;;;;6224398;23;20044;-66
2023/06/16 04:31:31;;;;;;;9.35;5.63;;;16.70;99.90;;;;;;6222085;23;20460;-66
2023/06/16 04:33:58;;;;;;;9.82;5.80;;;16.80;99.90;;;;;;6224408;23;20111;-66
2023/06/16 04:36:29;;;;;;;11.35;6.13;;;16.80;99.90;;;;;;6222790;23;20072;-67
2023/06/16 04:38:59;;;;;;;12.40;6.30;;;16.80;99.90;;;;;;6224053;23;20073;-66
2023/06/16 04:41:25;;;;;;;10.05;6.60;;;16.90;99.90;;;;;;6224500;23;20025;-66
2023/06/16 04:43:51;;;;;;;9.15;6.50;;;17.00;99.90;;;;;;6222234;23;20043;-67
2023/06/16 04:46:17;;;;;;;10.52;5.93;;;17.00;99.90;;;;;;6224296;23;20072;-65
2023/06/16 04:48:43;;;;;;;8.07;6.10;;;17.20;99.90;;;;;;6221853;23;20036;-66
2023/06/16 04:51:11;;;;;;;7.35;5.75;;;17.30;99.90;;;;;;6224095;23;20012;-65
2023/06/16 04:53:37;;;;;;;10.10;6.47;;;17.30;99.90;;;;;;6222746;23;20044;-65
2023/06/16 04:56:03;;;;;;;9.10;6.95;;;17.30;99.90;;;;;;6223518;23;20020;-66
2023/06/16 04:58:29;;;;;;;8.95;6.10;;;17.40;99.90;;;;;;6224074;23;20047;-66
2023/06/16 05:00:55;;;;;;;11.23;6.68;;;17.50;99.90;;;;;;6221957;23;20016;-66
2023/06/16 05:03:20;;;;;;;8.75;6.78;;;17.60;99.90;;;;;;6223934;23;20076;-66
2023/06/16 05:05:46;;;;;;;7.80;6.40;;;17.70;99.90;;;;;;6221933;23;20079;-67
2023/06/16 05:08:12;;;;;;;8.70;6.22;;;17.80;99.90;;;;;;6224085;23;20027;-67
2023/06/16 05:10:38;;;;;;;10.15;7.40;;;17.80;99.90;;;;;;6222620;23;20031;-66
2023/06/16 05:13:04;;;;;;;10.65;7.03;;;17.90;99.90;;;;;;6196167;23;20044;-67
2023/06/16 05:15:30;;;;;;;8.85;6.82;;;18.00;99.90;;;;;;6223453;23;20016;-66
2023/06/16 05:17:56;;;;;;;10.35;7.30;;;18.10;99.90;;;;;;6222354;23;20166;-66
2023/06/16 05:20:21;;;;;;;10.50;7.70;;;18.10;99.90;;;;;;6223747;23;20052;-67
2023/06/16 05:22:47;;;;;;;14.20;8.02;;;18.30;99.90;;;;;;6221796;23;20028;-67
2023/06/16 05:25:13;;;;;;;12.52;7.72;;;18.30;99.90;;;;;;6224064;23;20349;-66
2023/06/16 05:27:39;;;;;;;8.52;6.97;;;18.50;99.90;;;;;;6222234;23;20027;-67
2023/06/16 05:30:06;;;;;;;11.73;7.43;;;18.50;99.90;;;;;;6223582;23;20040;-67
2023/06/16 05:32:31;;;;;;;12.75;7.30;;;18.50;99.90;;;;;;6223616;23;20059;-67
2023/06/16 05:34:57;;;;;;;11.30;7.68;;;18.60;99.90;;;;;;6222554;23;20057;-67
2023/06/16 05:37:23;;;;;;;9.02;6.97;;;18.60;99.90;;;;;;6224648;23;20027;-67
2023/06/16 05:39:50;;;;;;;10.90;7.80;;;18.80;99.90;;;;;;6222130;23;20016;-67
2023/06/16 05:42:16;;;;;;;10.50;7.38;;;18.80;99.90;;;;;;6224335;23;20090;-67
2023/06/16 05:44:43;;;;;;;11.20;7.50;;;18.90;99.90;;;;;;6221804;23;20044;-67
2023/06/16 05:47:09;;;;;;;10.20;7.57;;;19.10;99.90;;;;;;6197426;23;20021;-67
2023/06/16 05:49:35;;;;;;;9.25;7.68;;;19.20;99.90;;;;;;6223435;23;20056;-66
2023/06/16 05:52:05;;;;;;;13.35;7.78;;;19.30;99.90;;;;;;6222972;23;20020;-67
2023/06/16 05:54:33;;;;;;;10.80;7.93;;;19.30;99.90;;;;;;6224110;23;20060;-67
2023/06/16 05:56:59;;;;;;;9.13;7.18;;;19.40;99.80;;;;;;6221621;23;20047;-68
2023/06/16 05:59:26;;;;;;;10.25;7.80;;;19.70;99.50;;;;;;6224138;23;20602;-67
2023/06/16 06:01:52;;;;;;;9.63;7.43;;;19.80;99.20;;;;;;6221862;23;20456;-67
2023/06/16 06:04:30;;;;;;;14.40;7.53;;;19.90;99.30;;;;;;6223073;23;20024;-67
2023/06/16 06:06:56;;;;;;;12.32;9.13;;;19.80;99.40;;;;;;6222205;23;20080;-66
2023/06/16 06:09:23;;;;;;;12.40;8.57;;;19.80;99.40;;;;;;6220722;23;20031;-67
2023/06/16 06:11:49;;;;;;;10.10;7.65;;;19.90;99.20;;;;;;6222567;23;20147;-67
2023/06/16 06:14:15;;;;;;;12.52;7.68;;;19.90;99.20;;;;;;6218703;23;20013;-67
2023/06/16 06:16:41;;;;;;;9.98;7.40;;;20.10;99.00;;;;;;6222496;23;20047;-67
2023/06/16 06:19:07;;;;;;;11.27;8.18;;;20.30;98.70;;;;;;6220064;23;20107;-68
2023/06/16 06:21:36;;;;;;;10.00;8.00;;;20.30;98.60;;;;;;6221795;23;20376;-68
2023/06/16 06:24:05;;;;;;;12.57;8.27;;;20.50;98.50;;;;;;6222062;23;20044;-66
2023/06/16 06:26:31;;;;;;;11.32;8.15;;;20.50;98.50;;;;;;6219864;23;20075;-68
2023/06/16 06:28:56;;;;;;;9.65;8.13;;;20.50;98.40;;;;;;6222815;23;20039;-67
2023/06/16 06:31:22;;;;;;;9.55;7.45;;;20.50;98.60;;;;;;6193183;23;20022;-67
2023/06/16 06:33:48;;;;;;;13.02;7.57;;;20.80;98.00;;;;;;6222887;23;20056;-74
2023/06/16 06:36:26;;;;;;;10.60;6.82;;;21.00;97.60;;;;;;6220452;23;20012;-67
2023/06/16 06:38:53;;;;;;;10.88;7.20;;;21.00;97.20;;;;;;6222227;23;20048;-67
2023/06/16 06:41:19;;;;;;;9.40;7.13;;;21.20;97.10;;;;;;6222553;23;20027;-68
2023/06/16 06:43:45;;;;;;;8.57;7.15;;;21.10;97.30;;;;;;6220106;23;20031;-67
2023/06/16 06:46:11;;;;;;;9.93;7.68;;;21.10;97.30;;;;;;6222966;23;20016;-68
2023/06/16 06:48:37;;;;;;;10.25;7.75;;;21.00;97.30;;;;;;6219867;23;20029;-68
2023/06/16 06:51:03;;;;;;;9.02;7.50;;;21.20;97.60;;;;;;6222948;23;20055;-67
2023/06/16 06:53:29;;;;;;;10.48;7.80;;;21.10;97.30;;;;;;6220851;23;20048;-67
2023/06/16 06:55:55;;;;;;;11.35;8.00;;;21.20;97.20;;;;;;6221872;23;20235;-67
2023/06/16 06:58:21;;;;;;;11.95;8.23;;;21.30;97.10;;;;;;6220615;23;20039;-67
2023/06/16 07:00:46;;;;;;;10.07;6.93;;;21.30;97.30;;;;;;6219266;23;20024;-67
2023/06/16 07:03:12;;;;;;;10.10;6.57;;;21.40;96.90;;;;;;6221748;23;20021;-66
2023/06/16 07:05:38;;;;;;;13.05;7.43;;;21.50;96.50;;;;;;6219243;23;20021;-67
2023/06/16 07:08:04;;;;;;;11.45;7.30;;;21.50;96.30;;;;;;6222287;23;20043;-67
2023/06/16 07:10:32;;;;;;;12.52;8.15;;;21.60;96.30;;;;;;6219518;23;20014;-68
2023/06/16 07:12:58;;;;;;;10.55;6.97;;;21.60;96.30;;;;;;6221616;23;20020;-68
2023/06/16 07:15:24;;;;;;;12.13;6.43;;;21.70;96.00;;;;;;6221440;23;20020;-68
2023/06/16 07:17:50;;;;;;;8.13;5.32;;;22.00;95.70;;;;;;6218935;23;20021;-67
2023/06/16 07:20:16;;;;;;;10.27;6.88;;;22.00;95.60;;;;;;6222297;23;20024;-67
2023/06/16 07:22:45;;;;;;;16.15;5.95;;;22.10;95.20;;;;;;6218834;23;20023;-72
2023/06/16 07:25:11;;;;;;;9.00;6.45;;;22.10;95.00;;;;;;6221506;23;20075;-75
2023/06/16 07:27:37;;;;;;;9.18;6.03;;;22.10;95.10;;;;;;6216892;23;20035;-67
2023/06/16 07:30:04;;;;;;;7.78;6.00;;;22.30;94.80;;;;;;6220682;23;20021;-69
2023/06/16 07:32:30;;;;;;;8.85;6.35;;;22.50;94.60;;;;;;6220798;23;20048;-67
2023/06/16 07:34:56;;;;;;;10.02;7.03;;;22.60;94.20;;;;;;6219542;23;20025;-67
2023/06/16 07:37:22;;;;;;;8.00;5.85;;;22.70;94.30;;;;;;6222547;23;20017;-67
2023/06/16 07:39:48;;;;;;;9.10;7.05;;;22.80;94.10;;;;;;6220519;23;20425;-67
2023/06/16 07:42:14;;;;;;;9.43;7.18;;;22.90;93.90;;;;;;6223576;23;20077;-67
2023/06/16 07:44:40;;;;;;;6.93;5.78;;;22.90;93.90;;;;;;6220599;23;20012;-67
2023/06/16 07:47:06;;;;;;;6.45;5.30;;;23.00;93.80;;;;;;6223644;23;20451;-68
2023/06/16 07:49:32;;;;;;;8.55;5.97;;;23.10;93.60;;;;;;6222322;23;20016;-67
2023/06/16 07:51:57;;;;;;;8.98;5.80;;;23.10;93.40;;;;;;6220422;23;20044;-67
2023/06/16 07:54:23;;;;;;;7.70;5.93;;;23.10;93.20;;;;;;6223573;23;20024;-67
2023/06/16 07:56:52;;;;;;;8.60;6.38;;;23.30;93.00;;;;;;6218137;23;20070;-68
2023/06/16 07:59:18;;;;;;;7.85;6.40;;;23.20;93.20;;;;;;6223442;23;20025;-67
2023/06/16 08:01:44;;;;;;;6.95;5.45;;;23.40;92.90;;;;;;6220847;23;20077;-67
2023/06/16 08:04:11;;;;;;;7.38;5.60;;;23.30;92.90;;;;;;6223123;23;20020;-67
2023/06/16 08:06:36;;;;;;;9.65;6.18;;;23.50;92.90;;;;;;6222191;23;20055;-67
2023/06/16 08:09:07;;;;;;;9.35;5.50;;;23.40;92.90;;;;;;6221199;23;20051;-67
2023/06/16 08:11:35;;;;;;;5.90;4.60;;;23.50;92.80;;;;;;6222179;23;20020;-67
2023/06/16 08:14:01;;;;;;;8.27;5.30;;;23.50;92.70;;;;;;6219798;23;20024;-67
2023/06/16 08:16:27;;;;;;;10.13;5.53;;;23.50;92.70;;;;;;6221711;23;20021;-67
2023/06/16 08:18:56;;;;;;;5.53;4.43;;;23.70;92.60;;;;;;6220342;23;20028;-67
2023/06/16 08:21:22;;;;;;;5.80;4.45;;;23.70;92.50;;;;;;6196314;23;20024;-66
2023/06/16 08:23:48;;;;;;;5.75;5.15;;;23.90;92.40;;;;;;6221867;23;20337;-67
2023/06/16 08:26:17;;;;;;;5.40;4.22;;;23.80;92.50;;;;;;6221437;23;20445;-67
2023/06/16 08:28:44;;;;;;;5.50;4.30;;;23.90;92.40;;;;;;6221626;23;20016;-67
2023/06/16 08:31:10;;;;;;;4.97;4.45;;;24.10;92.30;;;;;;6220093;23;20020;-67
2023/06/16 08:33:36;;;;;;;5.97;4.55;;;24.10;92.10;;;;;;6223217;23;20028;-67
2023/06/16 08:36:02;;;;;;;7.97;4.55;;;24.10;92.20;;;;;;6220495;23;20020;-66
2023/06/16 08:38:28;;;;;;;7.80;4.47;;;24.20;92.00;;;;;;6222828;23;20012;-66
2023/06/16 08:40:54;;;;;;;6.40;4.85;;;24.20;92.20;;;;;;6221975;23;20040;-67
2023/06/16 08:43:22;;;;;;;6.00;4.65;;;24.30;92.10;;;;;;6221410;23;20020;-68
2023/06/16 08:45:50;;;;;;;5.85;4.80;;;24.30;91.30;;;;;;6223262;23;20338;-67
2023/06/16 08:48:16;;;;;;;6.75;4.78;;;24.40;91.80;;;;;;6220143;23;20126;-68
2023/06/16 08:50:42;;;;;;;8.73;4.40;;;24.50;91.70;;;;;;6223235;23;20021;-68
2023/06/16 08:53:10;;;;;;;10.55;4.53;;;24.50;91.80;;;;;;6219970;23;20021;-67
2023/06/16 08:55:40;;;;;;;5.35;4.07;;;24.70;91.50;;;;;;6222848;23;20524;-68
2023/06/16 08:58:11;;;;;;;8.07;5.07;;;24.70;91.40;;;;;;6222130;23;20047;-68
2023/06/16 09:00:39;;;;;;;5.32;4.82;;;24.70;91.30;;;;;;6220204;23;20026;-66
2023/06/16 09:03:08;;;;;;;7.65;5.13;;;24.70;91.40;;;;;;6222380;23;20025;-67
2023/06/16 09:05:36;;;;;;;5.57;4.60;;;24.80;91.20;;;;;;6219479;23;20017;-67
2023/06/16 09:08:05;;;;;;;7.22;4.82;;;25.00;91.20;;;;;;6220882;23;20044;-67
2023/06/16 09:10:32;;;;;;;6.22;4.78;;;24.90;91.10;;;;;;6219564;23;20090;-66
2023/06/16 09:13:00;;;;;;;5.45;3.97;;;24.90;91.30;;;;;;6221389;23;20123;-67
2023/06/16 09:15:26;;;;;;;5.78;4.32;;;25.00;91.30;;;;;;6222271;23;20068;-66
2023/06/16 09:17:52;;;;;;;6.65;4.47;;;25.10;91.10;;;;;;6219527;23;20012;-67
2023/06/16 09:20:19;;;;;;;6.40;4.38;;;25.20;91.10;;;;;;6222219;23;20027;-68
2023/06/16 09:22:59;;;;;;;4.47;4.05;;;25.30;91.10;;;;;;6219733;23;20024;-68
2023/06/16 09:25:25;;;;;;;7.22;4.80;;;25.30;91.00;;;;;;6222667;23;20016;-67
2023/06/16 09:27:55;;;;;;;6.85;4.40;;;25.30;90.90;;;;;;6220865;23;20077;-68
2023/06/16 09:30:36;;;;;;;5.70;4.43;;;25.30;90.70;;;;;;6221149;23;20037;-67
2023/06/16 09:33:02;;;;;;;6.07;4.20;;;25.40;90.30;;;;;;6222652;23;20020;-67
2023/06/16 09:35:30;;;;;;;7.53;5.05;;;25.50;90.60;;;;;;6219393;23;20338;-66
2023/06/16 09:37:58;;;;;;;7.10;4.57;;;25.50;90.70;;;;;;6222158;23;20375;-68
2023/06/16 09:40:29;;;;;;;5.35;4.38;;;25.20;90.50;;;;;;6220467;23;20025;-69
2023/06/16 09:42:57;;;;;;;5.70;4.72;;;25.40;90.20;;;;;;6222430;23;20070;-70
2023/06/16 09:45:28;;;;;;;5.60;4.18;;;25.30;90.30;;;;;;6222296;23;20048;-66
2023/06/16 09:47:54;;;;;;;8.15;4.20;;;25.10;90.30;;;;;;6220168;23;20017;-69
2023/06/16 09:50:26;;;;;;;6.57;4.10;;;25.30;90.50;;;;;;6222265;23;20028;-71
2023/06/16 09:52:54;;;;;;;4.78;3.90;;;25.30;90.20;;;;;;6220117;23;20028;-69
2023/06/16 09:55:20;;;;;;;4.22;3.60;;;25.50;90.00;;;;;;6223275;23;20039;-69
2023/06/16 09:57:56;;;;;;;5.88;4.45;;;25.60;90.00;;;;;;6221257;23;20028;-68
2023/06/16 10:00:24;;;;;;;7.05;4.35;;;25.50;89.10;;;;;;6221189;23;20020;-67
2023/06/16 10:02:50;;;;;;;6.93;4.65;;;25.50;89.70;;;;;;6223274;23;20013;-69
2023/06/16 10:05:18;;;;;;;6.32;4.50;;;25.50;89.80;;;;;;6219635;23;20035;-68
2023/06/16 10:07:49;;;;;;;5.22;3.70;;;25.60;88.60;;;;;;6221840;23;20021;-69
2023/06/16 10:10:17;;;;;;;5.17;4.00;;;25.70;88.90;;;;;;6220645;23;20023;-69
2023/06/16 10:12:48;;;;;;;5.22;3.92;;;25.70;89.20;;;;;;6222945;23;20935;-68
2023/06/16 10:15:25;;;;;;;5.53;4.00;;;25.50;88.90;;;;;;6222250;23;20021;-68
2023/06/16 10:17:53;;;;;;;5.07;4.45;;;25.50;89.20;;;;;;6220992;23;20127;-69
2023/06/16 10:20:22;;;;;;;7.63;4.13;;;25.80;88.70;;;;;;6226199;22;20186;-75
2023/06/16 10:22:49;;;;;;;5.75;4.45;;;25.60;89.00;;;;;;6218475;23;20053;-76
2023/06/16 10:25:14;;;;;;;5.28;4.15;;;25.40;88.80;;;;;;6215466;23;20035;-71
2023/06/16 10:27:41;;;;;;;5.72;4.38;;;25.50;89.30;;;;;;6241180;23;20024;-72
2023/06/16 10:30:16;;;;;;;5.72;4.20;;;25.70;89.20;;;;;;6241866;23;20024;-71
2023/06/16 10:32:48;;;;;;;5.10;4.60;;;25.80;89.40;;;;;;6241387;23;20139;-71
2023/06/16 10:35:16;;;;;;;6.95;4.03;;;25.90;89.40;;;;;;6240714;23;20440;-71
2023/06/16 10:37:42;;;;;;;5.65;3.85;;;26.00;87.70;;;;;;6241607;23;20691;-72
2023/06/16 10:40:12;;;;;;;5.13;4.10;;;26.00;89.00;;;;;;6241631;23;20016;-72
2023/06/16 10:42:40;;;;;;;8.23;4.35;;;26.00;88.70;;;;;;6241195;23;20011;-71
2023/06/16 10:45:28;;;;;;;6.63;4.15;;;25.90;88.50;;;;;;6241097;23;20020;-75
2023/06/16 10:47:55;;;;;;;5.70;3.95;;;25.90;88.70;;;;;;6240896;23;20026;-73
2023/06/16 10:50:30;;;;;;;4.72;3.55;;;26.10;87.90;;;;;;6189157;23;20531;-73
2023/06/16 10:52:56;;;;;;;3.95;3.28;;;26.10;87.10;;;;;;6188974;23;20030;-73
2023/06/16 10:55:36;;;;;;;3.95;3.00;;;26.20;86.60;;;;;;6214090;23;20063;-73
2023/06/16 10:58:18;;;;;;;3.38;3.05;;;26.40;84.10;;;;;;6214233;23;20016;-74
2023/06/16 11:00:56;;;;;;;5.43;3.13;;;26.20;84.60;;;;;;6241158;23;20130;-74
2023/06/16 11:03:21;;;;;;;4.45;3.55;;;26.30;85.80;;;;;;6241678;23;20016;-73
2023/06/16 11:05:48;;;;;;;3.65;3.08;;;26.20;85.90;;;;;;6214387;23;20443;-73
2023/06/16 11:08:15;;;;;;;5.88;3.80;;;26.30;85.70;;;;;;6214288;23;20351;-74
2023/06/16 11:10:50;;;;;;;3.35;2.67;;;26.30;84.00;;;;;;6214400;23;20020;-74
2023/06/16 11:13:23;;;;;;;3.17;2.88;;;26.40;82.70;;;;;;6213999;23;20020;-74
2023/06/16 11:15:52;;;;;;;4.63;3.17;;;26.50;83.30;;;;;;6214682;23;20442;-74
2023/06/16 11:18:18;;;;;;;3.05;2.63;;;26.50;82.50;;;;;;6189308;23;20012;-73
2023/06/16 11:20:44;;;;;;;3.28;2.72;;;26.60;82.10;;;;;;6241159;23;20043;-73
2023/06/16 11:23:10;;;;;;;7.82;2.53;;;26.50;79.70;;;;;;6241178;23;20350;-73
2023/06/16 11:25:37;;;;;;;5.32;2.60;;;26.20;80.70;;;;;;6214500;23;20055;-73
2023/06/16 11:28:04;;;;;;;4.78;2.70;;;26.50;80.40;;;;;;6188920;23;20020;-74
2023/06/16 11:30:30;;;;;;;4.07;2.60;;;26.50;79.90;;;;;;6214020;23;20447;-72
2023/06/16 11:32:57;;;;;;;4.82;3.13;;;26.60;79.90;;;;;;6214146;23;20024;-74
2023/06/16 11:35:32;;;;;;;6.05;3.17;;;26.60;80.10;;;;;;6241356;23;20077;-73
2023/06/16 11:38:00;;;;;;;3.88;2.63;;;26.60;78.30;;;;;;6241294;23;20019;-73
2023/06/16 11:40:28;;;;;;;4.53;2.70;;;26.50;78.90;;;;;;6214471;23;20035;-74
2023/06/16 11:42:55;;;;;;;5.35;2.72;;;26.40;79.60;;;;;;6214066;23;20016;-74
2023/06/16 11:45:22;;;;;;;3.90;2.58;;;26.60;79.60;;;;;;6213904;23;20027;-73
2023/06/16 11:47:48;;;;;;;5.03;2.58;;;26.20;78.80;;;;;;6213878;23;20020;-74
2023/06/16 11:50:18;;;;;;;5.03;2.70;;;26.40;76.00;;;;;;6213936;23;20402;-74
2023/06/16 11:52:45;;;;;;;3.05;2.25;;;26.40;78.40;;;;;;6213904;23;20035;-74
2023/06/16 11:55:11;;;;;;;4.93;2.60;;;26.40;78.10;;;;;;6241334;23;20344;-74
2023/06/16 11:57:40;;;;;;;3.53;2.67;;;26.40;78.10;;;;;;6213973;23;20027;-74
2023/06/16 12:00:08;;;;;;;3.88;2.70;;;26.30;77.50;;;;;;6213690;23;20444;-74
2023/06/16 12:02:34;;;;;;;4.18;2.92;;;26.30;77.90;;;;;;6213939;23;20024;-73
2023/06/16 12:05:03;;;;;;;6.45;3.05;;;26.20;77.70;;;;;;6188101;23;20107;-73
2023/06/16 12:07:30;;;;;;;4.88;2.75;;;26.10;79.10;;;;;;6213684;23;20095;-73
2023/06/16 12:09:56;;;;;;;2.45;2.08;;;26.20;78.40;;;;;;6241188;23;20517;-73
2023/06/16 12:12:25;;;;;;;4.95;2.63;;;26.20;78.30;;;;;;6241184;23;20020;-74
2023/06/16 12:14:51;;;;;;;2.88;2.38;;;26.20;77.30;;;;;;6240943;23;20015;-73
2023/06/16 12:17:17;;;;;;;3.85;2.35;;;26.10;78.00;;;;;;6186549;23;20031;-74
2023/06/16 12:19:45;;;;;;;6.78;2.58;;;26.30;78.70;;;;;;6237824;23;20020;-74
2023/06/16 12:22:11;;;;;;;3.90;2.42;;;26.10;77.00;;;;;;6213115;23;20181;-73
2023/06/16 12:24:39;;;;;;;3.40;2.50;;;26.30;76.60;;;;;;6215082;23;20015;-73
2023/06/16 12:27:05;;;;;;;6.30;2.20;;;26.30;76.30;;;;;;6243174;23;20141;-76
2023/06/16 12:29:31;;;;;;;2.70;2.03;;;26.20;77.10;;;;;;6214949;23;20016;-72
2023/06/16 12:32:00;;;;;;;4.82;2.30;;;26.40;77.70;;;;;;6215750;23;20082;-73
2023/06/16 12:34:26;;;;;;;4.95;2.33;;;26.30;78.10;;;;;;6242645;23;20070;-73
2023/06/16 12:36:53;;;;;;;4.65;2.67;;;26.20;78.20;;;;;;6242173;23;20194;-71
2023/06/16 12:39:20;;;;;;;3.95;2.22;;;26.50;75.60;;;;;;6242126;23;20365;-71
2023/06/16 12:42:04;;;;;;;3.97;2.70;;;26.70;76.70;;;;;;6242221;23;20017;-73
2023/06/16 12:45:01;;;;;;;4.07;2.30;;;26.70;75.20;;;;;;6214942;23;20067;-72
2023/06/16 12:47:28;;;;;;;4.00;2.22;;;26.80;74.90;;;;;;6218053;23;20020;-74
2023/06/16 12:49:55;;;;;;;3.60;2.50;;;26.80;75.80;;;;;;6215611;23;20016;-73
2023/06/16 12:52:22;;;;;;;4.22;2.53;;;26.90;75.70;;;;;;6215683;23;20090;-72
2023/06/16 12:54:49;;;;;;;4.28;2.50;;;26.60;75.10;;;;;;6243423;23;20012;-73
2023/06/16 12:57:15;;;;;;;3.75;2.47;;;26.70;74.40;;;;;;6242752;23;20070;-72
2023/06/16 12:59:41;;;;;;;4.05;2.42;;;26.80;74.00;;;;;;6242383;23;20336;-73
2023/06/16 13:02:08;;;;;;;3.17;2.50;;;26.70;73.90;;;;;;6215631;23;20351;-72
2023/06/16 13:04:34;;;;;;;2.45;2.25;;;26.80;74.10;;;;;;6215561;23;20056;-74
2023/06/16 13:07:00;;;;;;;3.25;2.38;;;26.60;74.30;;;;;;6215502;23;20054;-72
2023/06/16 13:09:26;;;;;;;4.95;2.20;;;26.80;74.80;;;;;;6242875;23;20323;-74
2023/06/16 13:11:55;;;;;;;3.55;2.65;;;27.00;74.40;;;;;;6215199;23;20490;-74
2023/06/16 13:14:22;;;;;;;3.35;2.28;;;27.00;73.40;;;;;;6242793;23;20095;-74
2023/06/16 13:16:48;;;;;;;5.32;2.58;;;26.70;73.30;;;;;;6215586;23;20008;-74
2023/06/16 13:19:14;;;;;;;2.78;2.20;;;26.80;73.80;;;;;;6215797;23;20440;-74
2023/06/16 13:21:40;;;;;;;4.97;2.92;;;27.00;73.60;;;;;;6190726;23;20035;-74
2023/06/16 13:24:10;;;;;;;3.15;1.83;;;27.00;73.70;;;;;;6243005;23;20012;-73
2023/06/16 13:26:35;;;;;;;4.43;2.60;;;27.10;74.00;;;;;;6215436;23;20027;-74
2023/06/16 13:29:01;;;;;;;3.65;2.30;;;27.00;73.80;;;;;;6216145;23;20020;-75
2023/06/16 13:31:28;;;;;;;3.05;2.20;;;27.10;72.50;;;;;;6215729;23;20069;-74
2023/06/16 13:33:55;;;;;;;3.95;2.40;;;27.20;71.40;;;;;;6213396;23;20048;-74
2023/06/16 13:36:21;;;;;;;3.15;2.20;;;27.20;72.40;;;;;;6215215;23;20008;-74
2023/06/16 13:38:51;;;;;;;5.47;2.40;;;27.30;73.60;;;;;;6214893;23;20020;-74
2023/06/16 13:41:18;;;;;;;3.25;2.03;;;27.30;72.10;;;;;;6241388;23;20012;-74
2023/06/16 13:43:49;;;;;;;3.40;2.10;;;27.50;71.90;;;;;;6190120;23;20347;-74
2023/06/16 13:46:15;;;;;;;6.38;2.40;;;27.40;72.00;;;;;;6215375;23;20395;-74
2023/06/16 13:48:42;;;;;;;4.63;2.50;;;27.30;71.20;;;;;;6214951;23;20051;-74
2023/06/16 13:51:07;;;;;;;2.13;1.73;;;27.00;71.10;;;;;;6215046;23;20411;-74
2023/06/16 13:53:33;;;;;;;3.45;2.33;;;26.90;72.30;;;;;;6241970;23;20019;-74
2023/06/16 13:55:59;;;;;;;3.25;2.30;;;26.90;72.50;;;;;;6214910;23;20048;-74
2023/06/16 13:58:25;;;;;;;4.75;2.40;;;27.10;71.60;;;;;;6214998;23;20027;-74
2023/06/16 14:00:51;;;;;;;3.72;2.20;;;26.80;72.30;;;;;;6214945;23;20115;-74
2023/06/16 14:03:16;;;;;;;5.40;2.50;;;26.90;72.00;;;;;;6214867;23;20094;-73
2023/06/16 14:05:44;;;;;;;3.22;2.22;;;27.00;72.70;;;;;;6242122;23;20015;-73
2023/06/16 14:08:09;;;;;;;3.80;2.83;;;27.10;71.90;;;;;;6214791;23;20075;-74
2023/06/16 14:10:35;;;;;;;3.15;2.10;;;27.20;72.40;;;;;;6214851;23;20095;-73
2023/06/16 14:13:01;;;;;;;4.47;2.00;;;27.20;71.50;;;;;;6241851;23;20058;-74
2023/06/16 14:15:31;;;;;;;3.03;2.47;;;27.00;69.60;;;;;;6215036;23;20084;-73
2023/06/16 14:17:57;;;;;;;8.43;2.40;;;27.10;70.10;;;;;;6216595;23;20020;-74
2023/06/16 14:20:23;;;;;;;2.60;2.05;;;27.10;71.30;;;;;;6214627;23;20470;-72
2023/06/16 14:22:49;;;;;;;3.03;2.28;;;26.90;71.70;;;;;;6214786;23;20039;-74
2023/06/16 14:25:15;;;;;;;4.80;2.20;;;26.90;71.20;;;;;;6241523;23;20012;-73
2023/06/16 14:27:40;;;;;;;4.63;2.45;;;27.00;71.60;;;;;;6241970;23;20455;-74
2023/06/16 14:30:09;;;;;;;2.85;2.38;;;27.00;71.70;;;;;;6214426;23;20027;-74
2023/06/16 14:32:36;;;;;;;7.47;2.35;;;26.90;72.30;;;;;;6241427;23;20019;-73
2023/06/16 14:35:03;;;;;;;6.15;2.55;;;26.90;71.80;;;;;;6214652;23;20016;-73
2023/06/16 14:37:29;;;;;;;3.03;2.47;;;27.00;71.60;;;;;;6214693;23;20027;-74
2023/06/16 14:39:55;;;;;;;5.30;2.10;;;27.00;71.70;;;;;;6214231;23;20023;-73
2023/06/16 14:42:21;;;;;;;2.38;2.17;;;27.00;71.80;;;;;;6214419;23;20020;-74
2023/06/16 14:44:47;;;;;;;2.58;2.20;;;26.80;70.00;;;;;;6189170;23;20023;-74
2023/06/16 14:47:13;;;;;;;2.67;2.10;;;26.80;70.60;;;;;;6214165;23;20051;-74
2023/06/16 14:49:39;;;;;;;2.35;2.15;;;26.80;70.70;;;;;;6214363;23;20012;-75
2023/06/16 14:52:05;;;;;;;3.25;2.45;;;27.00;70.30;;;;;;6214508;23;20016;-74
2023/06/16 14:54:31;;;;;;;4.43;2.50;;;26.80;70.10;;;;;;6214678;23;20016;-75
2023/06/16 14:56:58;;;;;;;7.40;2.38;;;26.80;70.40;;;;;;6213605;23;20012;-74
2023/06/16 14:59:24;;;;;;;2.92;2.35;;;26.80;71.20;;;;;;6214263;23;20012;-74
2023/06/16 15:01:51;;;;;;;2.70;2.22;;;26.80;71.10;;;;;;6214421;23;20020;-73
2023/06/16 15:04:17;;;;;;;2.35;2.15;;;26.80;70.80;;;;;;6214205;23;20313;-73
2023/06/16 15:06:43;;;;;;;2.83;2.25;;;26.50;71.20;;;;;;6241511;23;20097;-74
2023/06/16 15:09:08;;;;;;;3.22;2.28;;;26.70;71.70;;;;;;6214506;23;20024;-73
2023/06/16 15:11:34;;;;;;;4.28;2.53;;;26.60;71.70;;;;;;6190209;23;20018;-74
2023/06/16 15:14:01;;;;;;;3.80;2.38;;;26.70;71.60;;;;;;6242084;23;20036;-74
2023/06/16 15:16:30;;;;;;;2.95;2.47;;;26.70;72.10;;;;;;6215040;23;20071;-74
2023/06/16 15:18:59;;;;;;;4.60;2.38;;;26.70;71.60;;;;;;6214305;23;20020;-74
2023/06/16 15:21:25;;;;;;;5.18;2.75;;;26.80;71.70;;;;;;6214229;23;20385;-74
2023/06/16 15:23:51;;;;;;;4.68;2.47;;;27.00;71.60;;;;;;6241215;23;20023;-74
2023/06/16 15:26:17;;;;;;;3.80;2.50;;;26.70;71.40;;;;;;6214293;23;20103;-73
2023/06/16 15:28:43;;;;;;;3.42;2.50;;;26.80;72.00;;;;;;6241175;23;20412;-73
2023/06/16 15:31:09;;;;;;;4.65;2.33;;;26.60;72.20;;;;;;6241047;23;20490;-73
2023/06/16 15:33:35;;;;;;;3.63;2.40;;;26.40;71.60;;;;;;6241155;23;20016;-74
2023/06/16 15:36:05;;;;;;;3.80;2.13;;;26.40;72.10;;;;;;6214207;23;20020;-73
2023/06/16 15:38:31;;;;;;;6.75;3.10;;;26.30;72.20;;;;;;6213807;23;20030;-73
2023/06/16 15:40:56;;;;;;;3.38;2.50;;;26.20;71.80;;;;;;6214146;23;20099;-73
2023/06/16 15:43:22;;;;;;;3.28;2.50;;;26.30;72.00;;;;;;6189125;23;20015;-74
2023/06/16 15:45:49;;;;;;;3.17;2.38;;;26.30;72.40;;;;;;6241561;23;20012;-73
2023/06/16 15:48:15;;;;;;;6.35;2.53;;;26.40;72.30;;;;;;6241590;23;20012;-74
2023/06/16 15:50:41;;;;;;;3.13;2.35;;;26.20;72.60;;;;;;6214718;23;20016;-73
2023/06/16 15:53:07;;;;;;;3.60;2.05;;;26.00;72.60;;;;;;6214207;23;20023;-73
2023/06/16 15:55:34;;;;;;;3.75;2.50;;;26.20;72.00;;;;;;6213607;23;20055;-73
2023/06/16 15:58:00;;;;;;;3.17;2.50;;;26.30;72.00;;;;;;6241797;23;20087;-73
2023/06/16 16:00:26;;;;;;;3.72;2.53;;;26.40;72.30;;;;;;6242883;23;20019;-73
2023/06/16 16:02:52;;;;;;;3.40;2.53;;;26.30;73.00;;;;;;6215547;23;20096;-72
2023/06/16 16:05:18;;;;;;;3.78;2.25;;;26.40;72.60;;;;;;6216440;23;20043;-74
2023/06/16 16:07:45;;;;;;;2.97;2.13;;;26.40;72.70;;;;;;6242178;23;20225;-72
2023/06/16 16:10:10;;;;;;;2.78;2.22;;;26.50;72.40;;;;;;6216094;23;20044;-70
2023/06/16 16:12:37;;;;;;;3.60;2.17;;;26.50;72.30;;;;;;6243033;23;20016;-72
2023/06/16 16:15:03;;;;;;;2.85;2.00;;;26.50;72.20;;;;;;6215995;23;20087;-73
2023/06/16 16:17:29;;;;;;;2.55;1.85;;;26.40;72.10;;;;;;6242769;23;20024;-73
2023/06/16 16:19:56;;;;;;;3.05;1.92;;;26.40;72.60;;;;;;6215867;23;20012;-73
2023/06/16 16:22:22;;;;;;;2.83;2.05;;;26.30;72.70;;;;;;6215335;23;20024;-74
2023/06/16 16:24:50;;;;;;;3.40;1.90;;;26.40;72.50;;;;;;6243219;23;20542;-71
2023/06/16 16:27:18;;;;;;;4.00;2.13;;;26.40;72.50;;;;;;6216324;23;20404;-73
2023/06/16 16:29:43;;;;;;;2.50;2.00;;;26.20;72.60;;;;;;6242828;23;20365;-72
2023/06/16 16:32:09;;;;;;;3.85;2.10;;;26.20;72.50;;;;;;6216148;23;20050;-72
2023/06/16 16:34:35;;;;;;;5.15;2.22;;;25.90;72.90;;;;;;6215101;23;20016;-73
2023/06/16 16:37:02;;;;;;;2.58;2.38;;;26.20;73.40;;;;;;6216202;23;20074;-73